Time;durP1;ratioP1;P1;durP2;ratioP2;P2;SDS_P1;SDS_P2;PMS_P1;PMS_P2;Temp;Humidity;BMP_temperature;BMP_pressure;BME280_temperature;BME280_humidity;BME280_pressure;Samples;Min_cycle;Max_cycle;Signal;HPM_P1;HPM_P2
2022/04/17 00:01:03;;;;;;;5.35;3.30;;;;;;;3.62;62.66;102076.33;1695043;84;27455;-73
2022/04/17 00:03:31;;;;;;;3.92;2.70;;;;;;;3.58;62.99;102072.20;1691034;83;25834;-74
2022/04/17 00:05:57;;;;;;;9.15;3.60;;;;;;;3.56;63.00;102072.78;1685992;83;25829;-73
2022/04/17 00:08:23;;;;;;;8.13;3.67;;;;;;;3.56;63.06;102070.14;1696028;83;26353;-74
2022/04/17 00:10:50;;;;;;;6.60;3.70;;;;;;;3.57;62.95;102070.02;1696354;84;25964;-73
2022/04/17 00:13:17;;;;;;;8.63;3.90;;;;;;;3.59;62.88;102064.14;1690468;83;27495;-73
2022/04/17 00:15:43;;;;;;;6.33;3.35;;;;;;;3.60;62.94;102064.52;1696372;83;25757;-73
2022/04/17 00:18:10;;;;;;;9.13;3.65;;;;;;;3.58;62.83;102065.11;1666748;85;26165;-73
2022/04/17 00:20:39;;;;;;;6.87;3.75;;;;;;;3.58;62.91;102063.78;1694742;83;26361;-73
2022/04/17 00:23:06;;;;;;;8.67;3.87;;;;;;;3.58;62.99;102058.48;1687941;84;26492;-74
2022/04/17 00:25:32;;;;;;;6.17;4.12;;;;;;;3.58;62.96;102058.48;1659819;86;27492;-73
2022/04/17 00:27:59;;;;;;;7.03;3.98;;;;;;;3.56;62.91;102057.74;1687778;84;25890;-73
2022/04/17 00:30:25;;;;;;;6.78;2.95;;;;;;;3.57;63.06;102059.42;1659868;85;25812;-74
2022/04/17 00:32:51;;;;;;;7.08;3.87;;;;;;;3.59;63.06;102059.34;1687868;84;26293;-73
2022/04/17 00:35:17;;;;;;;9.13;3.20;;;;;;;3.55;62.92;102053.39;1659790;86;26841;-74
2022/04/17 00:37:44;;;;;;;6.85;4.83;;;;;;;3.54;63.05;102047.73;1688052;84;27443;-74
2022/04/17 00:40:11;;;;;;;9.60;4.28;;;;;;;3.54;62.76;102048.20;1659704;86;25916;-74
2022/04/17 00:42:40;;;;;;;10.80;8.10;;;;;;;3.51;62.84;102046.61;1693740;83;25816;-74
2022/04/17 00:45:07;;;;;;;12.82;9.80;;;;;;;3.53;62.91;102046.02;1711973;83;26522;-73
2022/04/17 00:47:33;;;;;;;12.10;10.78;;;;;;;3.52;62.82;102036.40;1667811;85;26552;-73
2022/04/17 00:49:59;;;;;;;10.55;7.22;;;;;;;3.50;62.85;102041.42;1702604;83;27548;-73
2022/04/17 00:52:26;;;;;;;8.55;4.90;;;;;;;3.48;62.90;102042.01;1693166;83;26679;-73
2022/04/17 00:54:55;;;;;;;6.12;3.83;;;;;;;3.41;63.00;102039.41;1681514;84;25886;-73
2022/04/17 00:57:22;;;;;;;5.47;3.75;;;;;;;3.34;63.10;102043.42;1701528;83;26096;-73
2022/04/17 00:59:49;;;;;;;7.37;3.33;;;;;;;3.30;63.19;102036.64;1690429;83;25905;-73
2022/04/17 01:02:15;;;;;;;5.78;3.00;;;;;;;3.27;63.18;102039.52;1695909;84;28081;-73
2022/04/17 01:04:43;;;;;;;6.97;3.87;;;;;;;3.24;63.38;102037.06;1693306;84;25915;-74
2022/04/17 01:07:10;;;;;;;6.45;3.50;;;;;;;3.17;63.42;102033.13;1676986;84;25742;-73
2022/04/17 01:09:37;;;;;;;8.30;3.55;;;;;;;3.13;63.57;102035.16;1700645;83;26631;-73
2022/04/17 01:12:08;;;;;;;8.93;3.02;;;;;;;3.12;63.65;102030.83;1701419;83;25709;-73
2022/04/17 01:14:38;;;;;;;8.88;3.47;;;;;;;3.10;63.72;102031.41;1670451;84;28229;-73
2022/04/17 01:17:05;;;;;;;5.17;4.17;;;;;;;3.07;63.79;102028.95;1658477;85;25966;-73
2022/04/17 01:19:37;;;;;;;7.58;3.90;;;;;;;3.04;63.81;102029.15;1688415;83;25950;-74
2022/04/17 01:22:03;;;;;;;7.20;3.60;;;;;;;3.01;63.95;102032.02;1696814;84;26562;-74
2022/04/17 01:27:15;;;;;;;9.30;3.87;;;;;;;2.93;64.14;102037.81;1662889;84;27490;-73
2022/04/17 01:29:42;;;;;;;10.98;3.90;;;;;;;2.89;64.27;102032.83;1661128;85;25930;-73
2022/04/17 01:32:10;;;;;;;9.33;3.70;;;;;;;2.84;64.22;102027.02;1685269;83;25838;-74
2022/04/17 01:34:38;;;;;;;9.08;3.65;;;;;;;2.80;64.35;102032.96;1681682;84;26562;-73
2022/04/17 01:37:05;;;;;;;6.78;3.05;;;;;;;2.75;64.40;102024.97;1687507;84;25878;-73
2022/04/17 01:39:32;;;;;;;9.28;3.62;;;;;;;2.72;64.59;102024.70;1694432;84;27480;-73
2022/04/17 01:42:00;;;;;;;6.80;3.47;;;;;;;2.70;64.64;102018.66;1694229;83;25579;-73
2022/04/17 01:44:28;;;;;;;6.03;3.37;;;;;;;2.69;64.92;102024.06;1694054;83;25905;-73
2022/04/17 01:46:57;;;;;;;7.72;3.72;;;;;;;2.65;65.05;102011.98;1683817;83;26590;-73
2022/04/17 01:49:24;;;;;;;9.10;4.08;;;;;;;2.64;65.01;102016.89;1692447;83;25878;-73
2022/04/17 01:51:54;;;;;;;6.78;3.58;;;;;;;2.62;65.23;102020.97;1696107;84;27630;-74
2022/04/17 01:54:23;;;;;;;7.65;3.40;;;;;;;2.58;65.39;102017.30;1687918;83;26007;-73
2022/04/17 01:56:49;;;;;;;6.78;3.55;;;;;;;2.55;65.55;102016.17;1692497;83;25765;-73
2022/04/17 01:59:18;;;;;;;5.80;2.95;;;;;;;2.54;65.59;102017.13;1660287;85;25848;-73
2022/04/17 02:01:45;;;;;;;6.12;3.50;;;;;;;2.53;65.66;102013.64;1690638;84;25753;-74
2022/04/17 02:04:11;;;;;;;9.03;3.52;;;;;;;2.50;65.69;102014.33;1697021;84;27579;-73
2022/04/17 02:06:42;;;;;;;6.35;3.33;;;;;;;2.47;65.90;102012.72;1696557;84;25788;-73
2022/04/17 02:09:14;;;;;;;9.78;3.65;;;;;;;2.48;65.84;102008.29;1696735;83;25844;-73
2022/04/17 02:11:42;;;;;;;10.00;6.67;;;;;;;2.47;66.00;102016.69;1689069;84;26597;-74
2022/04/17 02:14:10;;;;;;;11.03;7.28;;;;;;;2.47;66.12;102009.22;1693078;84;26530;-73
2022/04/17 02:16:37;;;;;;;7.95;4.20;;;;;;;2.49;66.27;102014.79;1705733;83;27497;-73
2022/04/17 02:19:04;;;;;;;8.55;4.95;;;;;;;2.44;66.10;102011.59;1671137;84;26299;-73
2022/04/17 02:21:31;;;;;;;6.30;4.03;;;;;;;2.41;66.14;102015.77;1665772;85;26630;-73
2022/04/17 02:23:59;;;;;;;6.53;4.00;;;;;;;2.39;66.18;102018.14;1665437;84;25766;-74
2022/04/17 02:26:25;;;;;;;11.03;4.25;;;;;;;2.38;66.31;102018.60;1697086;84;25755;-73
2022/04/17 02:28:51;;;;;;;11.08;5.35;;;;;;;2.38;66.44;102014.64;1695393;84;27485;-73
2022/04/17 02:31:18;;;;;;;18.02;7.10;;;;;;;2.37;66.45;102018.25;1669974;84;25915;-73
2022/04/17 02:33:44;;;;;;;11.08;5.08;;;;;;;2.37;66.58;102012.10;1670448;84;25645;-73
2022/04/17 02:36:10;;;;;;;6.78;4.03;;;;;;;2.35;66.62;102016.18;1683007;84;25830;-74
2022/04/17 02:38:36;;;;;;;12.07;4.42;;;;;;;2.31;66.78;102012.86;1696406;84;26094;-74
2022/04/17 02:41:03;;;;;;;12.85;5.90;;;;;;;2.29;67.08;102011.27;1684681;84;27522;-74
2022/04/17 02:43:29;;;;;;;9.38;4.55;;;;;;;2.23;67.11;102007.70;1666866;85;25881;-73
2022/04/17 02:45:55;;;;;;;9.35;3.95;;;;;;;2.22;67.31;102013.45;1684767;84;25868;-74
2022/04/17 02:48:22;;;;;;;7.85;4.47;;;;;;;2.16;67.26;102007.24;1671939;84;26518;-74
2022/04/17 02:50:48;;;;;;;8.88;4.35;;;;;;;2.09;67.22;102011.25;1693421;84;25775;-74
2022/04/17 02:53:16;;;;;;;8.18;4.47;;;;;;;2.07;67.23;102009.64;1695810;84;27536;-73
2022/04/17 02:55:44;;;;;;;7.58;3.90;;;;;;;2.06;67.49;102011.43;1641415;85;26061;-74
2022/04/17 02:58:10;;;;;;;8.53;4.53;;;;;;;2.06;67.37;102006.14;1684588;83;26002;-74
2022/04/17 03:05:36;;;;;;;8.18;4.35;;;;;;;1.98;67.28;102005.80;1695784;84;26020;-74
2022/04/17 03:05:51;;;;;;;15.43;7.80;;;;;;;1.93;67.44;102001.73;1690357;83;27589;-73
2022/04/17 03:08:18;;;;;;;10.58;6.40;;;;;;;1.90;67.43;102000.63;1691549;82;26110;-73
2022/04/17 03:10:48;;;;;;;10.63;6.03;;;;;;;1.88;67.48;102000.70;1691558;84;25956;-73
2022/04/17 03:13:15;;;;;;;14.55;6.85;;;;;;;1.86;67.54;102004.41;1666814;85;25850;-73
2022/04/17 03:15:41;;;;;;;13.03;6.42;;;;;;;1.81;67.57;102013.08;1692245;83;25840;-73
2022/04/17 03:18:08;;;;;;;11.12;6.05;;;;;;;1.79;67.59;102005.73;1691840;83;27493;-74
2022/04/17 03:20:36;;;;;;;15.72;7.72;;;;;;;1.76;67.61;102008.08;1703255;83;25781;-73
2022/04/17 03:23:04;;;;;;;9.95;6.20;;;;;;;1.74;67.64;102006.48;1696307;83;25737;-73
2022/04/17 03:25:30;;;;;;;10.15;5.78;;;;;;;1.70;67.72;102006.30;1708928;83;25770;-73
2022/04/17 03:27:57;;;;;;;10.72;6.20;;;;;;;1.68;67.98;102009.05;1698870;83;25816;-73
2022/04/17 03:30:24;;;;;;;8.60;5.70;;;;;;;1.66;67.92;102010.08;1699711;83;28266;-73
2022/04/17 03:32:51;;;;;;;7.92;5.28;;;;;;;1.63;68.19;102015.07;1693608;83;25770;-74
2022/04/17 03:35:19;;;;;;;9.58;5.22;;;;;;;1.62;68.37;102012.53;1676811;84;26456;-74
2022/04/17 03:37:46;;;;;;;9.28;5.28;;;;;;;1.58;68.52;102012.71;1711425;83;26609;-74
2022/04/17 03:40:15;;;;;;;9.58;5.28;;;;;;;1.55;68.77;102015.56;1695856;83;26470;-74
2022/04/17 03:42:42;;;;;;;7.75;4.95;;;;;;;1.52;68.86;102014.42;1695404;84;27668;-74
2022/04/17 03:45:17;;;;;;;10.30;4.87;;;;;;;1.51;68.92;102014.05;1711818;83;25883;-74
2022/04/17 03:47:44;;;;;;;10.18;4.90;;;;;;;1.50;68.72;102011.48;1699854;83;26433;-74
2022/04/17 03:50:11;;;;;;;8.20;5.12;;;;;;;1.47;68.63;102009.05;1702113;83;26524;-74
2022/04/17 03:52:44;;;;;;;10.43;5.58;;;;;;;1.48;68.92;102016.02;1659430;85;25860;-74
2022/04/17 03:55:12;;;;;;;10.58;6.15;;;;;;;1.49;69.08;102020.37;1666843;85;27653;-74
2022/04/17 03:57:39;;;;;;;7.47;5.22;;;;;;;1.47;69.03;102019.61;1699475;83;26631;-74
2022/04/17 04:00:09;;;;;;;7.55;4.65;;;;;;;1.43;69.28;102014.97;1700959;83;25532;-74
2022/04/17 04:02:41;;;;;;;7.30;4.58;;;;;;;1.42;69.55;102014.61;1698359;83;25867;-74
2022/04/17 04:05:09;;;;;;;5.83;4.43;;;;;;;1.39;69.64;102013.47;1690120;83;25801;-74
2022/04/17 04:07:37;;;;;;;11.05;4.80;;;;;;;1.37;69.57;102019.78;1700375;83;27448;-74
2022/04/17 04:10:05;;;;;;;7.70;5.00;;;;;;;1.37;69.64;102023.27;1689550;83;25833;-74
2022/04/17 04:12:33;;;;;;;8.15;5.85;;;;;;;1.39;69.88;102021.39;1701232;83;25769;-74
2022/04/17 04:14:59;;;;;;;10.50;6.03;;;;;;;1.39;69.79;102020.06;1689185;84;25790;-74
2022/04/17 04:17:25;;;;;;;13.50;6.97;;;;;;;1.39;70.12;102016.11;1696907;83;25833;-74
2022/04/17 04:19:52;;;;;;;13.50;7.17;;;;;;;1.41;70.46;102020.00;1682014;84;27480;-74
2022/04/17 04:22:20;;;;;;;13.58;6.45;;;;;;;1.40;70.62;102020.92;1690801;83;25889;-74
2022/04/17 04:24:46;;;;;;;18.57;7.12;;;;;;;1.44;70.69;102023.75;1697819;83;25792;-74
2022/04/17 04:29:57;;;;;;;10.48;6.00;;;;;;;1.47;70.90;102022.25;1705158;83;25919;-74
2022/04/17 04:32:23;;;;;;;14.60;6.75;;;;;;;1.50;71.07;102022.91;1706227;83;27458;-74
2022/04/17 04:34:50;;;;;;;11.50;6.35;;;;;;;1.52;71.04;102024.98;1698669;83;26170;-74
2022/04/17 04:37:16;;;;;;;10.60;6.30;;;;;;;1.54;71.40;102025.73;1696058;83;25966;-74
2022/04/17 04:39:42;;;;;;;12.80;6.03;;;;;;;1.53;71.73;102024.05;1677416;84;25808;-74
2022/04/17 04:42:08;;;;;;;8.53;5.22;;;;;;;1.45;71.69;102022.33;1698279;83;26441;-74
2022/04/17 04:44:35;;;;;;;8.58;4.87;;;;;;;1.43;71.94;102024.22;1693320;83;27620;-74
2022/04/17 04:47:01;;;;;;;10.43;5.35;;;;;;;1.43;72.48;102032.14;1693335;83;25832;-74
2022/04/17 04:49:30;;;;;;;7.87;4.72;;;;;;;1.43;72.87;102029.50;1686520;83;25970;-74
2022/04/17 04:52:02;;;;;;;9.80;5.22;;;;;;;1.45;73.03;102029.42;1665132;84;25787;-74
2022/04/17 04:54:31;;;;;;;10.65;5.35;;;;;;;1.47;73.60;102038.09;1675819;84;25899;-74
2022/04/17 04:56:58;;;;;;;9.73;5.42;;;;;;;1.48;73.54;102036.67;1698387;83;27304;-74
2022/04/17 04:59:24;;;;;;;8.33;4.70;;;;;;;1.51;73.80;102033.86;1699215;83;25983;-74
2022/04/17 05:01:51;;;;;;;9.55;4.95;;;;;;;1.56;74.03;102030.94;1678815;84;25795;-74
2022/04/17 05:04:20;;;;;;;9.68;4.45;;;;;;;1.58;74.54;102028.55;1690265;83;26528;-74
2022/04/17 05:06:47;;;;;;;8.90;5.25;;;;;;;1.63;74.68;102037.98;1666975;84;25302;-74
2022/04/17 05:09:13;;;;;;;10.78;5.50;;;;;;;1.68;74.97;102036.78;1689826;83;28115;-74
2022/04/17 05:11:40;;;;;;;10.00;5.78;;;;;;;1.73;74.86;102032.53;1657223;85;25748;-74
2022/04/17 05:14:09;;;;;;;9.60;6.12;;;;;;;1.81;74.76;102036.86;1698426;83;25839;-74
2022/04/17 05:16:36;;;;;;;8.40;5.55;;;;;;;1.88;74.83;102040.33;1690601;83;25969;-74
2022/04/17 05:19:24;;;;;;;10.13;5.03;;;;;;;1.92;74.69;102040.54;1696075;83;25807;-74
2022/04/17 05:21:51;;;;;;;9.00;5.05;;;;;;;1.96;74.73;102036.75;1700396;83;28482;-74
2022/04/17 05:24:17;;;;;;;8.30;5.87;;;;;;;1.99;74.81;102041.00;1691506;83;26018;-74
2022/04/17 05:26:44;;;;;;;12.63;4.62;;;;;;;1.99;74.96;102040.50;1658136;84;25771;-75
2022/04/17 05:29:10;;;;;;;10.25;4.78;;;;;;;1.98;75.27;102041.47;1664116;85;25765;-74
2022/04/17 05:31:37;;;;;;;7.03;4.55;;;;;;;1.96;75.33;102039.86;1694930;83;25855;-74
2022/04/17 05:34:03;;;;;;;9.00;4.70;;;;;;;1.97;75.48;102041.54;1689271;83;28251;-74
2022/04/17 05:36:33;;;;;;;8.28;4.72;;;;;;;1.96;75.60;102043.36;1684450;84;25275;-74
2022/04/17 05:38:59;;;;;;;10.43;5.53;;;;;;;1.99;75.87;102039.69;1681895;83;25814;-74
2022/04/17 05:41:29;;;;;;;8.55;4.67;;;;;;;1.98;75.76;102040.14;1689268;83;25765;-74
2022/04/17 05:44:00;;;;;;;12.30;5.62;;;;;;;2.05;76.24;102039.29;1687598;83;25837;-74
2022/04/17 05:46:35;;;;;;;12.10;6.15;;;;;;;2.11;76.21;102035.78;1710853;83;28271;-74
2022/04/17 05:48:59;;;;;;;14.15;5.78;;;;;;;2.14;76.38;102040.86;1681309;83;25760;-74
2022/04/17 05:51:27;;;;;;;11.38;6.17;;;;;;;2.19;76.78;102036.60;1695318;83;25773;-74
2022/04/17 05:53:53;;;;;;;13.43;6.80;;;;;;;2.28;76.69;102036.87;1694959;84;26689;-75
2022/04/17 05:56:19;;;;;;;10.75;5.80;;;;;;;2.40;77.15;102039.19;1674016;84;25868;-74
2022/04/17 05:58:47;;;;;;;10.78;6.22;;;;;;;2.45;77.08;102036.24;1692730;83;26985;-75
2022/04/17 06:01:14;;;;;;;9.55;5.95;;;;;;;2.50;77.13;102037.66;1709199;83;26400;-74
2022/04/17 06:03:40;;;;;;;13.55;6.70;;;;;;;2.57;77.00;102040.72;1693195;84;25890;-75
2022/04/17 06:06:07;;;;;;;11.63;6.17;;;;;;;2.64;77.96;102038.05;1685739;84;26738;-74
2022/04/17 06:08:33;;;;;;;12.88;6.05;;;;;;;2.68;76.94;102037.75;1696605;84;26607;-74
2022/04/17 06:10:59;;;;;;;8.88;5.75;;;;;;;2.74;76.98;102030.73;1696696;84;27528;-75
2022/04/17 06:13:25;;;;;;;13.35;6.37;;;;;;;2.90;77.86;102037.19;1686724;83;25879;-74
2022/04/17 06:15:52;;;;;;;15.40;7.72;;;;;;;2.92;77.39;102032.63;1696298;83;25851;-74
2022/04/17 06:18:18;;;;;;;14.58;8.48;;;;;;;2.98;77.97;102034.39;1682864;83;26044;-74
2022/04/17 06:20:44;;;;;;;16.55;8.90;;;;;;;3.10;77.75;102037.53;1695204;84;25318;-74
2022/04/17 06:23:10;;;;;;;11.95;7.78;;;;;;;3.19;77.23;102041.84;1694640;83;27550;-74
2022/04/17 06:25:37;;;;;;;12.60;7.05;;;;;;;3.29;77.56;102034.96;1696005;83;25767;-74
2022/04/17 06:28:03;;;;;;;10.13;6.62;;;;;;;3.39;76.97;102039.52;1696734;84;25805;-74
2022/04/17 06:30:29;;;;;;;11.63;7.30;;;;;;;3.53;77.31;102040.72;1685026;84;26342;-74
2022/04/17 06:32:56;;;;;;;14.47;7.42;;;;;;;3.57;76.58;102030.78;1696230;84;25966;-74
2022/04/17 06:35:22;;;;;;;13.35;6.95;;;;;;;3.61;76.86;102029.61;1697202;83;27455;-74
2022/04/17 06:37:52;;;;;;;14.33;9.05;;;;;;;3.69;77.11;102029.91;1663047;84;26001;-74
2022/04/17 06:40:24;;;;;;;15.55;9.13;;;;;;;3.82;76.72;102029.42;1697669;84;25834;-74
2022/04/17 06:42:54;;;;;;;15.72;10.58;;;;;;;3.89;76.53;102033.34;1684743;84;25768;-73
2022/04/17 06:45:22;;;;;;;19.30;10.90;;;;;;;3.95;76.71;102036.02;1693928;84;25865;-74
2022/04/17 06:47:48;;;;;;;15.58;9.88;;;;;;;3.98;76.44;102030.01;1693687;84;27497;-74
2022/04/17 06:50:16;;;;;;;16.25;9.88;;;;;;;4.00;75.67;102035.22;1684101;84;25897;-75
2022/04/17 06:52:42;;;;;;;15.25;10.18;;;;;;;3.95;76.12;102035.55;1700772;83;25800;-74
2022/04/17 06:55:11;;;;;;;17.67;10.23;;;;;;;4.01;76.52;102038.23;1655047;84;26513;-74
2022/04/17 06:57:40;;;;;;;15.90;10.80;;;;;;;4.03;76.22;102046.44;1686449;84;25566;-74
2022/04/17 07:00:10;;;;;;;17.17;10.28;;;;;;;4.00;76.12;102040.52;1696170;84;27464;-74
2022/04/17 07:02:37;;;;;;;18.35;10.48;;;;;;;4.04;76.90;102036.70;1686666;84;25622;-74
2022/04/17 07:05:05;;;;;;;18.48;10.72;;;;;;;4.13;76.43;102040.02;1688436;84;25679;-74
2022/04/17 07:07:32;;;;;;;15.25;10.82;;;;;;;4.06;76.15;102034.31;1658595;85;26067;-74
2022/04/17 07:10:00;;;;;;;15.98;10.45;;;;;;;4.05;75.64;102041.02;1697023;84;26068;-74
2022/04/17 07:12:27;;;;;;;17.10;10.60;;;;;;;4.16;76.04;102042.44;1676836;84;27574;-74
2022/04/17 07:14:54;;;;;;;14.53;9.85;;;;;;;4.16;75.93;102037.98;1688676;83;25631;-74
2022/04/17 07:17:20;;;;;;;17.95;10.32;;;;;;;4.25;75.53;102042.63;1690610;83;25746;-74
2022/04/17 07:19:46;;;;;;;15.98;10.20;;;;;;;4.33;75.41;102040.26;1684675;83;25784;-74
2022/04/17 07:22:13;;;;;;;14.73;9.40;;;;;;;4.30;75.34;102037.81;1694190;83;25833;-74
2022/04/17 07:24:43;;;;;;;16.93;9.88;;;;;;;4.33;75.16;102036.75;1676937;84;27482;-73
2022/04/17 07:27:14;;;;;;;15.83;10.30;;;;;;;4.33;75.50;102037.61;1687317;83;25951;-74
2022/04/17 07:29:38;;;;;;;18.02;9.58;;;;;;;4.31;75.50;102035.55;1694540;84;25763;-74
2022/04/17 07:32:06;;;;;;;12.93;9.03;;;;;;;4.36;76.05;102034.71;1682858;83;25674;-75
2022/04/17 07:34:32;;;;;;;18.05;10.03;;;;;;;4.37;75.62;102035.09;1682703;83;25578;-74
2022/04/17 07:36:59;;;;;;;16.65;10.43;;;;;;;4.42;75.20;102038.27;1683058;83;27447;-74
2022/04/17 07:39:25;;;;;;;15.45;9.68;;;;;;;4.46;74.89;102036.23;1682173;83;25542;-75
2022/04/17 07:41:51;;;;;;;15.38;9.65;;;;;;;4.50;74.55;102039.02;1683434;83;25791;-74
2022/04/17 07:44:17;;;;;;;16.45;8.85;;;;;;;4.55;74.83;102036.41;1681526;83;26413;-74
2022/04/17 07:46:43;;;;;;;16.65;10.75;;;;;;;4.54;74.76;102043.99;1676622;83;25783;-75
2022/04/17 07:49:10;;;;;;;14.50;9.43;;;;;;;4.58;74.76;102048.58;1681439;83;27462;-74
2022/04/17 07:51:36;;;;;;;12.85;8.90;;;;;;;4.62;74.85;102043.41;1681464;83;26402;-74
2022/04/17 07:54:03;;;;;;;15.65;9.80;;;;;;;4.65;75.12;102048.50;1681993;83;25887;-74
2022/04/17 07:56:30;;;;;;;13.48;8.55;;;;;;;4.64;75.26;102045.00;1682746;83;25777;-74
2022/04/17 07:58:56;;;;;;;16.70;10.50;;;;;;;4.65;74.56;102040.07;1682805;83;25616;-74
2022/04/17 08:01:22;;;;;;;14.18;9.73;;;;;;;4.71;75.53;102037.43;1682954;83;27450;-74
2022/04/17 08:03:49;;;;;;;14.07;8.60;;;;;;;4.81;74.68;102039.79;1682682;83;25652;-74
2022/04/17 08:06:20;;;;;;;17.30;9.90;;;;;;;4.80;74.86;102038.08;1684078;83;26047;-74
2022/04/17 08:08:46;;;;;;;13.95;8.83;;;;;;;4.86;75.29;102034.10;1686782;83;25789;-74
2022/04/17 08:11:13;;;;;;;15.03;9.60;;;;;;;5.00;75.54;102037.91;1693899;84;25819;-74
2022/04/17 08:13:42;;;;;;;12.55;7.28;;;;;;;5.05;74.66;102035.27;1696994;84;27528;-74
2022/04/17 08:16:09;;;;;;;12.37;7.72;;;;;;;5.14;74.02;102039.02;1697196;84;25714;-74
2022/04/17 08:18:36;;;;;;;13.95;8.70;;;;;;;5.11;74.04;102040.10;1681156;83;25303;-74
2022/04/17 08:21:04;;;;;;;14.58;8.88;;;;;;;5.07;73.63;102037.31;1695416;84;25831;-74
2022/04/17 08:23:31;;;;;;;13.53;9.00;;;;;;;5.09;74.88;102034.06;1698285;83;25994;-74
2022/04/17 08:25:58;;;;;;;15.32;10.10;;;;;;;5.20;75.17;102034.56;1698122;84;27548;-73
2022/04/17 08:28:24;;;;;;;13.20;8.90;;;;;;;5.19;73.66;102038.20;1650185;81;26978;-73
2022/04/17 08:30:52;;;;;;;15.20;9.80;;;;;;;5.17;73.97;102034.82;1631528;87;25798;-74
2022/04/17 08:33:18;;;;;;;16.15;9.33;;;;;;;5.22;74.13;102032.64;1641996;87;25768;-73
2022/04/17 08:35:46;;;;;;;13.48;9.80;;;;;;;5.27;73.74;102026.50;1644602;85;25847;-74
2022/04/17 08:38:14;;;;;;;13.10;9.63;;;;;;;5.39;73.99;102032.19;1605446;88;27482;-73
2022/04/17 08:40:40;;;;;;;14.98;9.28;;;;;;;5.44;73.41;102027.38;1620495;87;25848;-74
2022/04/17 08:46:16;;;;;;;14.68;10.65;;;;;;;5.56;73.33;102019.77;1581218;88;25875;-74
2022/04/17 08:48:43;;;;;;;14.60;10.45;;;;;;;5.69;73.33;102019.17;1584510;88;25885;-74
2022/04/17 08:51:09;;;;;;;13.88;10.08;;;;;;;5.77;72.88;102014.12;1595697;88;27487;-73
2022/04/17 08:56:30;;;;;;;16.30;10.48;;;;;;;5.85;72.74;102007.73;1600720;87;26720;-74
2022/04/17 08:58:58;;;;;;;12.03;9.03;;;;;;;5.93;73.24;102007.11;1588102;88;26530;-74
2022/04/17 09:01:25;;;;;;;14.78;10.15;;;;;;;6.05;73.22;101998.98;1608807;87;26280;-74
2022/04/17 09:03:52;;;;;;;15.13;10.10;;;;;;;6.13;72.58;101991.25;1582851;89;28313;-74
2022/04/17 09:06:20;;;;;;;14.13;9.60;;;;;;;6.16;71.84;101993.65;1608249;87;25664;-74
2022/04/17 09:09:06;;;;;;;15.25;9.55;;;;;;;6.20;71.51;101985.77;1597146;88;25929;-74
2022/04/17 09:11:34;;;;;;;16.52;10.50;;;;;;;6.27;72.87;101983.94;1582944;89;25998;-74
2022/04/17 09:14:03;;;;;;;13.98;9.60;;;;;;;6.34;72.07;101971.34;1607136;88;25857;-74
2022/04/17 09:16:36;;;;;;;14.63;10.48;;;;;;;6.36;71.02;101967.22;1591194;89;27499;-74
2022/04/17 09:19:18;;;;;;;13.83;9.73;;;;;;;6.38;71.36;101965.28;1609176;88;25973;-74
2022/04/17 09:21:44;;;;;;;13.50;9.20;;;;;;;6.45;71.64;101966.00;1590075;89;25668;-74
2022/04/17 09:24:22;;;;;;;15.48;9.35;;;;;;;6.56;70.98;101959.30;1603962;87;26002;-74
2022/04/17 09:26:54;;;;;;;13.97;9.30;;;;;;;6.65;70.56;101958.50;1622361;81;26801;-73
2022/04/17 09:29:26;;;;;;;13.55;8.83;;;;;;;6.71;71.02;101950.03;1641232;82;27721;-75
2022/04/17 09:32:09;;;;;;;12.45;8.95;;;;;;;6.86;70.44;101946.04;1603616;87;25763;-74
2022/04/17 09:34:36;;;;;;;15.32;8.60;;;;;;;6.96;70.28;101941.64;1626173;82;26448;31
2022/04/17 09:37:08;;;;;;;11.00;8.50;;;;;;;7.03;69.18;101940.63;1674015;84;26608;-74
2022/04/17 09:39:34;;;;;;;12.90;9.20;;;;;;;7.08;68.39;101928.25;1651999;84;25739;-74
2022/04/17 09:42:03;;;;;;;11.15;8.78;;;;;;;7.14;68.96;101930.38;1622168;82;28427;-74
2022/04/17 09:44:47;;;;;;;12.47;9.38;;;;;;;7.24;68.80;101928.13;1556641;90;25894;-74
2022/04/17 09:47:23;;;;;;;11.22;7.90;;;;;;;7.34;69.24;101922.34;1578862;82;26888;-74
2022/04/17 09:50:08;;;;;;;12.10;8.78;;;;;;;7.46;68.86;101917.25;1558010;90;26365;-74
2022/04/17 09:52:41;;;;;;;13.18;8.35;;;;;;;7.60;68.21;101920.91;1599749;88;26029;-74
2022/04/17 09:55:08;;;;;;;11.10;7.15;;;;;;;7.66;67.77;101916.36;1590418;89;27467;-74
2022/04/17 09:57:37;;;;;;;10.05;6.72;;;;;;;7.77;67.48;101910.92;1577005;90;25657;-74
2022/04/17 10:00:18;;;;;;;12.13;7.05;;;;;;;7.86;66.56;101903.91;1566060;90;25593;-73
2022/04/17 10:02:46;;;;;;;;;;;;;;;7.95;66.30;101895.58;1553404;91;25851;-73
2022/04/17 10:05:16;;;;;;;8.98;6.15;;;;;;;8.04;64.03;101890.75;1564134;91;25963;-73
2022/04/17 10:07:45;;;;;;;7.22;4.97;;;;;;;8.09;64.67;101892.00;1472850;90;9999734;-73
2022/04/17 10:10:15;;;;;;;7.85;5.35;;;;;;;8.20;63.91;101891.88;1582886;90;36389;-73
2022/04/17 10:12:43;;;;;;;7.03;5.50;;;;;;;8.21;63.07;101880.20;1657866;82;26563;-74
2022/04/17 10:15:11;;;;;;;6.45;4.70;;;;;;;8.25;63.05;101883.00;1665769;85;26265;-74
2022/04/17 10:17:40;;;;;;;6.75;4.50;;;;;;;8.30;62.58;101874.06;1670753;85;27506;-74
2022/04/17 10:20:10;;;;;;;9.48;4.95;;;;;;;8.40;62.11;101868.73;1660325;82;25748;-74
2022/04/17 10:22:39;;;;;;;8.00;6.40;;;;;;;8.50;62.29;101864.21;1667206;84;26554;-73
2022/04/17 10:25:08;;;;;;;5.37;4.28;;;;;;;8.63;62.37;101855.89;1677105;84;25811;-73
2022/04/17 10:27:55;;;;;;;7.05;4.95;;;;;;;8.76;60.36;101859.95;1677467;85;25590;-74
2022/04/17 10:30:24;;;;;;;8.48;5.30;;;;;;;8.79;60.69;101853.48;1659210;84;27543;-74
2022/04/17 10:33:08;;;;;;;6.62;5.12;;;;;;;8.82;60.84;101851.36;1650060;85;25952;-74
2022/04/17 10:36:19;;;;;;;7.15;5.85;;;;;;;8.85;60.95;101844.40;1614520;87;25659;-74
2022/04/17 10:39:03;;;;;;;9.10;5.70;;;;;;;8.87;59.71;101835.74;1637453;85;25785;-74
2022/04/17 10:41:30;;;;;;;7.92;5.58;;;;;;;8.91;61.06;101821.58;1626913;87;25718;-74
2022/04/17 10:43:58;;;;;;;6.65;4.85;;;;;;;9.02;60.77;101816.91;1633083;85;27511;-74
2022/04/17 10:46:27;;;;;;;9.27;5.63;;;;;;;9.06;60.42;101816.11;1631055;85;25840;-74
2022/04/17 10:49:00;;;;;;;6.45;5.12;;;;;;;9.12;59.93;101819.52;1635523;85;26499;-73
2022/04/17 10:51:32;;;;;;;6.83;4.67;;;;;;;9.22;58.27;101814.48;1632658;85;26350;-74
2022/04/17 10:54:14;;;;;;;3.90;2.92;;;;;;;9.25;58.17;101812.86;1615680;87;26609;-74
2022/04/17 10:56:57;;;;;;;4.72;4.30;;;;;;;9.28;55.50;101809.86;1612156;87;27696;-74
2022/04/17 10:59:33;;;;;;;6.60;4.45;;;;;;;9.25;55.78;101802.65;1639906;87;25841;-74
2022/04/17 11:02:16;;;;;;;6.58;3.65;;;;;;;9.21;55.73;101799.93;1637414;87;25602;-74
2022/04/17 11:04:55;;;;;;;4.65;3.33;;;;;;;9.35;55.15;101804.77;1632569;87;26514;-74
2022/04/17 11:07:27;;;;;;;3.87;2.62;;;;;;;9.43;53.47;101798.69;1638934;87;25387;-74
2022/04/17 11:10:18;;;;;;;3.70;2.92;;;;;;;9.56;53.97;101799.98;1639982;87;27512;-74
2022/04/17 11:12:54;;;;;;;4.75;3.30;;;;;;;9.73;53.93;101799.16;1631239;87;26515;-74
2022/04/17 11:15:24;;;;;;;5.20;3.77;;;;;;;9.79;52.96;101785.20;1631729;87;25824;-74
2022/04/17 11:17:51;;;;;;;5.28;3.60;;;;;;;9.85;54.56;101780.56;1630536;87;26570;-74
2022/04/17 11:20:19;;;;;;;4.90;2.00;;;;;;;9.92;54.85;101778.12;1628417;87;26076;-74
2022/04/17 11:22:45;;;;;;;3.50;2.80;;;;;;;10.08;49.52;101775.08;1609382;87;28982;-74
2022/04/17 11:25:12;;;;;;;4.25;2.80;;;;;;;10.07;48.53;101767.20;1628065;87;25863;-74
2022/04/17 11:27:45;;;;;;;5.33;3.60;;;;;;;9.94;48.25;101766.23;1622102;87;25761;-74
2022/04/17 11:30:19;;;;;;;8.70;3.25;;;;;;;9.85;48.94;101762.33;1624933;87;26722;-73
2022/04/17 11:32:50;;;;;;;3.50;3.20;;;;;;;9.81;50.08;101755.59;1627079;87;26401;-74
2022/04/17 11:35:21;;;;;;;4.60;2.77;;;;;;;9.82;49.33;101750.09;1633932;87;28298;-74
2022/04/17 11:38:06;;;;;;;5.95;3.40;;;;;;;9.75;49.57;101746.86;1634703;87;25919;-74
2022/04/17 11:40:36;;;;;;;3.70;3.22;;;;;;;9.71;49.40;101752.17;1631251;87;26015;-74
2022/04/17 11:43:15;;;;;;;3.77;3.17;;;;;;;9.69;49.17;101747.44;1634880;87;26474;-74
2022/04/17 11:45:44;;;;;;;2.67;2.10;;;;;;;9.80;49.77;101742.71;1635451;87;26333;-74
2022/04/17 11:48:13;;;;;;;1.92;1.55;;;;;;;9.98;48.51;101742.21;1625966;87;28317;-74
2022/04/17 11:50:41;;;;;;;4.05;2.85;;;;;;;10.19;46.15;101735.20;1633345;87;25822;-74